Celeste Hinkle, North Carolina
Current Conditions -  °F | °C
As of 11:55 PM on Sunday 21 Dec 2014 (Local Time) from KSVH Reporting Station
Overcast Overcast  
Wind Chill: 39°   Ceiling: 3300
Heat Index: 43°   Visibility: 10mi
Dew Point: 36°   Wind: 7mph
Humidity: 77%   Direction: 30°NNE
Pressure: 30.18"   Gusts: NA
Location:  35.8306°N, 80.9003°W
Report Text: KSVH 220455Z AUTO 03006KT 10SM OVC033 06/02 A3018 RMK AO2 T00600023 400730040
Loading
Personal Weather Stations






























Interactive Weather Map New forecast layout! Learn more

10-Day Weather Forecast

Advertisements
Track Severe Weather on mobile